sensor_id;sensor_type;location;lat;lon;timestamp;temperature;humidity
44435;DHT22;30138;20.964;105.830;2024-03-08T00:04:53;23.50;99.90
44435;DHT22;30138;20.964;105.830;2024-03-08T00:10:03;23.50;99.90
44435;DHT22;30138;20.964;105.830;2024-03-08T00:15:14;23.50;99.90
44435;DHT22;30138;20.964;105.830;2024-03-08T00:20:21;23.50;99.90
44435;DHT22;30138;20.964;105.830;2024-03-08T00:25:31;23.50;99.90
44435;DHT22;30138;20.964;105.830;2024-03-08T00:30:40;23.50;99.90
44435;DHT22;30138;20.964;105.830;2024-03-08T00:35:47;23.50;99.90
44435;DHT22;30138;20.964;105.830;2024-03-08T00:40:57;23.50;99.90
44435;DHT22;30138;20.964;105.830;2024-03-08T00:46:04;23.50;99.90
44435;DHT22;30138;20.964;105.830;2024-03-08T00:51:11;23.50;99.90
44435;DHT22;30138;20.964;105.830;2024-03-08T00:56:20;23.50;99.90
44435;DHT22;30138;20.964;105.830;2024-03-08T01:01:27;23.40;99.90
44435;DHT22;30138;20.964;105.830;2024-03-08T01:06:34;23.50;99.90
44435;DHT22;30138;20.964;105.830;2024-03-08T01:11:44;23.50;99.90
44435;DHT22;30138;20.964;105.830;2024-03-08T01:16:52;23.40;99.90
44435;DHT22;30138;20.964;105.830;2024-03-08T01:22:00;23.40;99.90
44435;DHT22;30138;20.964;105.830;2024-03-08T01:27:09;23.40;99.90
44435;DHT22;30138;20.964;105.830;2024-03-08T01:32:16;23.40;99.90
44435;DHT22;30138;20.964;105.830;2024-03-08T01:37:26;23.40;99.90
44435;DHT22;30138;20.964;105.830;2024-03-08T01:42:35;23.40;99.90
44435;DHT22;30138;20.964;105.830;2024-03-08T01:47:43;23.40;99.90
44435;DHT22;30138;20.964;105.830;2024-03-08T01:52:51;23.40;99.90
44435;DHT22;30138;20.964;105.830;2024-03-08T01:58:03;23.40;99.90
44435;DHT22;30138;20.964;105.830;2024-03-08T02:03:11;23.40;99.90
44435;DHT22;30138;20.964;105.830;2024-03-08T02:08:19;23.40;99.90
44435;DHT22;30138;20.964;105.830;2024-03-08T02:13:28;23.40;99.90
44435;DHT22;30138;20.964;105.830;2024-03-08T02:18:35;23.40;99.90
44435;DHT22;30138;20.964;105.830;2024-03-08T02:23:45;23.40;99.90
44435;DHT22;30138;20.964;105.830;2024-03-08T02:28:55;23.40;99.90
44435;DHT22;30138;20.964;105.830;2024-03-08T02:34:02;23.40;99.90
44435;DHT22;30138;20.964;105.830;2024-03-08T02:39:11;23.40;99.90
44435;DHT22;30138;20.964;105.830;2024-03-08T02:44:18;23.40;99.90
44435;DHT22;30138;20.964;105.830;2024-03-08T02:49:25;23.40;99.90
44435;DHT22;30138;20.964;105.830;2024-03-08T02:54:33;23.40;99.90
44435;DHT22;30138;20.964;105.830;2024-03-08T02:59:41;23.40;99.90
44435;DHT22;30138;20.964;105.830;2024-03-08T03:04:48;23.40;99.90
44435;DHT22;30138;20.964;105.830;2024-03-08T03:09:57;23.40;99.90
44435;DHT22;30138;20.964;105.830;2024-03-08T03:15:04;23.40;99.90
44435;DHT22;30138;20.964;105.830;2024-03-08T03:20:12;23.30;99.40
44435;DHT22;30138;20.964;105.830;2024-03-08T03:25:28;23.30;99.30
44435;DHT22;30138;20.964;105.830;2024-03-08T03:30:38;23.30;99.30
44435;DHT22;30138;20.964;105.830;2024-03-08T03:35:48;23.30;99.30
44435;DHT22;30138;20.964;105.830;2024-03-08T03:40:58;23.30;99.30
44435;DHT22;30138;20.964;105.830;2024-03-08T03:46:13;23.30;99.50
44435;DHT22;30138;20.964;105.830;2024-03-08T03:51:20;23.30;99.40
44435;DHT22;30138;20.964;105.830;2024-03-08T03:56:29;23.30;99.30
44435;DHT22;30138;20.964;105.830;2024-03-08T04:01:36;23.30;99.40
44435;DHT22;30138;20.964;105.830;2024-03-08T04:06:47;23.30;99.30
44435;DHT22;30138;20.964;105.830;2024-03-08T04:11:57;23.30;99.20
44435;DHT22;30138;20.964;105.830;2024-03-08T04:17:04;23.30;99.40
44435;DHT22;30138;20.964;105.830;2024-03-08T04:22:12;23.30;99.40
44435;DHT22;30138;20.964;105.830;2024-03-08T04:27:21;23.30;99.60
44435;DHT22;30138;20.964;105.830;2024-03-08T04:32:28;23.30;99.90
44435;DHT22;30138;20.964;105.830;2024-03-08T04:37:34;23.30;99.90
44435;DHT22;30138;20.964;105.830;2024-03-08T04:42:44;23.30;99.90
44435;DHT22;30138;20.964;105.830;2024-03-08T04:47:55;23.30;99.90
44435;DHT22;30138;20.964;105.830;2024-03-08T04:53:01;23.30;99.90
44435;DHT22;30138;20.964;105.830;2024-03-08T04:58:12;23.30;99.90
44435;DHT22;30138;20.964;105.830;2024-03-08T05:03:20;23.40;99.90
44435;DHT22;30138;20.964;105.830;2024-03-08T05:08:29;23.40;99.90
44435;DHT22;30138;20.964;105.830;2024-03-08T05:13:39;23.30;99.90
44435;DHT22;30138;20.964;105.830;2024-03-08T05:18:46;23.40;99.90
44435;DHT22;30138;20.964;105.830;2024-03-08T05:23:54;23.40;99.90
44435;DHT22;30138;20.964;105.830;2024-03-08T05:29:03;23.40;99.90
44435;DHT22;30138;20.964;105.830;2024-03-08T05:34:12;23.40;99.90
44435;DHT22;30138;20.964;105.830;2024-03-08T05:39:19;23.40;99.90
44435;DHT22;30138;20.964;105.830;2024-03-08T05:44:48;23.40;99.90
44435;DHT22;30138;20.964;105.830;2024-03-08T05:50:02;23.40;99.90
44435;DHT22;30138;20.964;105.830;2024-03-08T05:55:10;23.40;99.90
44435;DHT22;30138;20.964;105.830;2024-03-08T06:00:19;23.40;99.90
44435;DHT22;30138;20.964;105.830;2024-03-08T06:05:26;23.40;99.90
44435;DHT22;30138;20.964;105.830;2024-03-08T06:10:34;23.40;99.90
44435;DHT22;30138;20.964;105.830;2024-03-08T06:15:46;23.40;99.90
44435;DHT22;30138;20.964;105.830;2024-03-08T06:20:55;23.30;99.90
44435;DHT22;30138;20.964;105.830;2024-03-08T06:26:08;23.30;99.90
44435;DHT22;30138;20.964;105.830;2024-03-08T06:31:35;23.30;99.90
44435;DHT22;30138;20.964;105.830;2024-03-08T06:36:43;23.30;99.90
44435;DHT22;30138;20.964;105.830;2024-03-08T06:41:52;23.30;99.90
44435;DHT22;30138;20.964;105.830;2024-03-08T06:47:02;23.30;99.90
44435;DHT22;30138;20.964;105.830;2024-03-08T06:52:10;23.30;99.90
44435;DHT22;30138;20.964;105.830;2024-03-08T06:57:17;23.30;99.90
44435;DHT22;30138;20.964;105.830;2024-03-08T07:02:26;23.30;99.90
44435;DHT22;30138;20.964;105.830;2024-03-08T07:07:35;23.30;99.90
44435;DHT22;30138;20.964;105.830;2024-03-08T07:12:44;23.30;99.90
44435;DHT22;30138;20.964;105.830;2024-03-08T07:17:54;23.30;99.90
44435;DHT22;30138;20.964;105.830;2024-03-08T07:23:05;23.30;99.90
44435;DHT22;30138;20.964;105.830;2024-03-08T07:28:13;23.30;99.90
44435;DHT22;30138;20.964;105.830;2024-03-08T07:33:22;23.30;99.90
44435;DHT22;30138;20.964;105.830;2024-03-08T07:38:30;23.30;99.80
44435;DHT22;30138;20.964;105.830;2024-03-08T07:43:43;23.30;99.80
44435;DHT22;30138;20.964;105.830;2024-03-08T07:49:06;23.30;99.30
44435;DHT22;30138;20.964;105.830;2024-03-08T07:54:35;23.30;99.00
44435;DHT22;30138;20.964;105.830;2024-03-08T07:59:45;23.30;98.80
44435;DHT22;30138;20.964;105.830;2024-03-08T08:05:14;23.30;98.70
44435;DHT22;30138;20.964;105.830;2024-03-08T08:10:31;23.30;98.50
44435;DHT22;30138;20.964;105.830;2024-03-08T08:15:45;23.30;98.40
44435;DHT22;30138;20.964;105.830;2024-03-08T08:20:54;23.30;98.90
44435;DHT22;30138;20.964;105.830;2024-03-08T08:26:01;23.20;99.00
44435;DHT22;30138;20.964;105.830;2024-03-08T08:31:09;23.20;99.00
44435;DHT22;30138;20.964;105.830;2024-03-08T08:36:17;23.30;98.70
44435;DHT22;30138;20.964;105.830;2024-03-08T08:41:24;23.20;98.30
44435;DHT22;30138;20.964;105.830;2024-03-08T08:46:32;23.20;98.30
44435;DHT22;30138;20.964;105.830;2024-03-08T08:51:48;23.20;98.20
44435;DHT22;30138;20.964;105.830;2024-03-08T08:56:55;23.20;98.20
44435;DHT22;30138;20.964;105.830;2024-03-08T09:02:02;23.20;98.50
44435;DHT22;30138;20.964;105.830;2024-03-08T09:07:11;23.20;98.30
44435;DHT22;30138;20.964;105.830;2024-03-08T09:12:19;23.20;98.60
44435;DHT22;30138;20.964;105.830;2024-03-08T09:17:27;23.20;98.50
44435;DHT22;30138;20.964;105.830;2024-03-08T09:22:38;23.20;98.20
44435;DHT22;30138;20.964;105.830;2024-03-08T09:27:45;23.10;98.20
44435;DHT22;30138;20.964;105.830;2024-03-08T09:32:53;23.20;98.80
44435;DHT22;30138;20.964;105.830;2024-03-08T09:38:01;23.10;99.20
44435;DHT22;30138;20.964;105.830;2024-03-08T09:43:08;23.10;99.50
44435;DHT22;30138;20.964;105.830;2024-03-08T09:48:16;23.20;99.80
44435;DHT22;30138;20.964;105.830;2024-03-08T09:53:26;23.10;99.90
44435;DHT22;30138;20.964;105.830;2024-03-08T09:58:33;23.10;99.90
44435;DHT22;30138;20.964;105.830;2024-03-08T10:03:58;23.10;99.90
44435;DHT22;30138;20.964;105.830;2024-03-08T10:09:06;23.10;99.90
44435;DHT22;30138;20.964;105.830;2024-03-08T10:14:14;23.10;99.90
44435;DHT22;30138;20.964;105.830;2024-03-08T10:19:21;23.10;99.90
44435;DHT22;30138;20.964;105.830;2024-03-08T10:24:30;23.10;99.90
44435;DHT22;30138;20.964;105.830;2024-03-08T10:29:38;23.10;99.90
44435;DHT22;30138;20.964;105.830;2024-03-08T10:34:48;23.10;99.90
44435;DHT22;30138;20.964;105.830;2024-03-08T10:40:05;23.10;99.90
44435;DHT22;30138;20.964;105.830;2024-03-08T10:45:26;23.10;99.90
44435;DHT22;30138;20.964;105.830;2024-03-08T10:50:40;23.00;99.90
44435;DHT22;30138;20.964;105.830;2024-03-08T10:55:50;23.00;99.90
44435;DHT22;30138;20.964;105.830;2024-03-08T11:00:59;23.00;99.90
44435;DHT22;30138;20.964;105.830;2024-03-08T11:06:06;23.00;99.90
44435;DHT22;30138;20.964;105.830;2024-03-08T11:11:31;23.00;99.90
44435;DHT22;30138;20.964;105.830;2024-03-08T11:16:40;23.00;99.90
44435;DHT22;30138;20.964;105.830;2024-03-08T11:21:58;23.00;99.90
44435;DHT22;30138;20.964;105.830;2024-03-08T11:27:08;23.00;99.90
44435;DHT22;30138;20.964;105.830;2024-03-08T11:32:17;23.00;99.90
44435;DHT22;30138;20.964;105.830;2024-03-08T11:37:25;23.00;99.90
44435;DHT22;30138;20.964;105.830;2024-03-08T11:42:37;23.00;99.90
44435;DHT22;30138;20.964;105.830;2024-03-08T11:47:44;23.00;99.90
44435;DHT22;30138;20.964;105.830;2024-03-08T11:52:52;22.90;99.90
44435;DHT22;30138;20.964;105.830;2024-03-08T11:58:04;23.00;99.90
44435;DHT22;30138;20.964;105.830;2024-03-08T12:03:14;23.00;99.90
44435;DHT22;30138;20.964;105.830;2024-03-08T12:08:21;22.90;99.90
44435;DHT22;30138;20.964;105.830;2024-03-08T12:13:33;22.90;99.90
44435;DHT22;30138;20.964;105.830;2024-03-08T12:18:40;22.90;99.90
44435;DHT22;30138;20.964;105.830;2024-03-08T12:23:51;22.90;99.90
44435;DHT22;30138;20.964;105.830;2024-03-08T12:29:24;22.90;99.90
44435;DHT22;30138;20.964;105.830;2024-03-08T12:34:31;22.90;99.90
44435;DHT22;30138;20.964;105.830;2024-03-08T12:39:40;22.90;99.90
44435;DHT22;30138;20.964;105.830;2024-03-08T12:44:49;22.90;99.90
44435;DHT22;30138;20.964;105.830;2024-03-08T12:49:56;22.90;99.90
44435;DHT22;30138;20.964;105.830;2024-03-08T12:55:03;22.90;99.90
44435;DHT22;30138;20.964;105.830;2024-03-08T13:00:14;22.90;99.90
44435;DHT22;30138;20.964;105.830;2024-03-08T13:05:24;22.90;99.90
44435;DHT22;30138;20.964;105.830;2024-03-08T13:10:31;22.90;99.90
44435;DHT22;30138;20.964;105.830;2024-03-08T13:15:41;22.90;99.90
44435;DHT22;30138;20.964;105.830;2024-03-08T13:20:49;22.90;99.90
44435;DHT22;30138;20.964;105.830;2024-03-08T13:25:58;22.90;99.90
44435;DHT22;30138;20.964;105.830;2024-03-08T13:31:07;22.80;99.90
44435;DHT22;30138;20.964;105.830;2024-03-08T13:36:15;22.80;99.90
44435;DHT22;30138;20.964;105.830;2024-03-08T13:41:24;22.90;99.90
44435;DHT22;30138;20.964;105.830;2024-03-08T13:46:34;22.80;99.90
44435;DHT22;30138;20.964;105.830;2024-03-08T13:51:43;22.80;99.90
44435;DHT22;30138;20.964;105.830;2024-03-08T13:56:50;22.80;99.90
44435;DHT22;30138;20.964;105.830;2024-03-08T14:02:05;22.80;99.90
44435;DHT22;30138;20.964;105.830;2024-03-08T14:07:17;22.80;99.90
44435;DHT22;30138;20.964;105.830;2024-03-08T14:12:25;22.80;99.90
44435;DHT22;30138;20.964;105.830;2024-03-08T14:17:35;22.80;99.90
44435;DHT22;30138;20.964;105.830;2024-03-08T14:22:47;22.80;99.90
44435;DHT22;30138;20.964;105.830;2024-03-08T14:27:55;22.80;99.90
44435;DHT22;30138;20.964;105.830;2024-03-08T14:33:09;22.80;99.90
44435;DHT22;30138;20.964;105.830;2024-03-08T14:38:17;22.80;99.90
44435;DHT22;30138;20.964;105.830;2024-03-08T14:43:24;22.80;99.90
44435;DHT22;30138;20.964;105.830;2024-03-08T14:48:37;22.70;99.90
44435;DHT22;30138;20.964;105.830;2024-03-08T14:53:45;22.70;99.90
44435;DHT22;30138;20.964;105.830;2024-03-08T14:58:55;22.80;99.90
44435;DHT22;30138;20.964;105.830;2024-03-08T15:04:05;22.70;99.90
44435;DHT22;30138;20.964;105.830;2024-03-08T15:09:15;22.70;99.90
44435;DHT22;30138;20.964;105.830;2024-03-08T15:14:22;22.70;99.90
44435;DHT22;30138;20.964;105.830;2024-03-08T15:19:32;22.70;99.90
44435;DHT22;30138;20.964;105.830;2024-03-08T15:24:41;22.70;99.90
44435;DHT22;30138;20.964;105.830;2024-03-08T15:29:49;22.70;99.90
44435;DHT22;30138;20.964;105.830;2024-03-08T15:35:04;22.70;99.90
44435;DHT22;30138;20.964;105.830;2024-03-08T15:40:13;22.70;99.90
44435;DHT22;30138;20.964;105.830;2024-03-08T15:45:26;22.70;99.90
44435;DHT22;30138;20.964;105.830;2024-03-08T15:50:36;22.70;99.90
44435;DHT22;30138;20.964;105.830;2024-03-08T15:55:45;22.70;99.90
44435;DHT22;30138;20.964;105.830;2024-03-08T16:00:54;22.70;99.90
44435;DHT22;30138;20.964;105.830;2024-03-08T16:06:05;22.70;99.90
44435;DHT22;30138;20.964;105.830;2024-03-08T16:11:13;22.70;99.90
44435;DHT22;30138;20.964;105.830;2024-03-08T16:16:22;22.70;99.90
44435;DHT22;30138;20.964;105.830;2024-03-08T16:21:35;22.60;99.90
44435;DHT22;30138;20.964;105.830;2024-03-08T16:26:44;22.60;99.90
44435;DHT22;30138;20.964;105.830;2024-03-08T16:31:55;22.60;99.90
44435;DHT22;30138;20.964;105.830;2024-03-08T16:37:06;22.60;99.90
44435;DHT22;30138;20.964;105.830;2024-03-08T16:42:15;22.60;99.90
44435;DHT22;30138;20.964;105.830;2024-03-08T16:47:24;22.60;99.90
44435;DHT22;30138;20.964;105.830;2024-03-08T16:52:35;22.50;99.90
44435;DHT22;30138;20.964;105.830;2024-03-08T16:57:43;22.60;99.90
44435;DHT22;30138;20.964;105.830;2024-03-08T17:02:53;22.50;99.90
44435;DHT22;30138;20.964;105.830;2024-03-08T17:08:03;22.60;99.90
44435;DHT22;30138;20.964;105.830;2024-03-08T17:13:13;22.60;99.90
44435;DHT22;30138;20.964;105.830;2024-03-08T17:18:22;22.50;99.90
44435;DHT22;30138;20.964;105.830;2024-03-08T17:23:33;22.50;99.90
44435;DHT22;30138;20.964;105.830;2024-03-08T17:28:40;22.50;99.90
44435;DHT22;30138;20.964;105.830;2024-03-08T17:33:48;22.50;99.90
44435;DHT22;30138;20.964;105.830;2024-03-08T17:39:01;22.50;99.90
44435;DHT22;30138;20.964;105.830;2024-03-08T17:44:09;22.50;99.90
44435;DHT22;30138;20.964;105.830;2024-03-08T17:49:18;22.50;99.90
44435;DHT22;30138;20.964;105.830;2024-03-08T17:54:27;22.50;99.90
44435;DHT22;30138;20.964;105.830;2024-03-08T17:59:35;22.50;99.90
44435;DHT22;30138;20.964;105.830;2024-03-08T18:04:43;22.50;99.90
44435;DHT22;30138;20.964;105.830;2024-03-08T18:09:52;22.50;99.90
44435;DHT22;30138;20.964;105.830;2024-03-08T18:14:59;22.50;99.90
44435;DHT22;30138;20.964;105.830;2024-03-08T18:20:07;22.40;99.90
44435;DHT22;30138;20.964;105.830;2024-03-08T18:25:19;22.50;99.90
44435;DHT22;30138;20.964;105.830;2024-03-08T18:30:26;22.40;99.90
44435;DHT22;30138;20.964;105.830;2024-03-08T18:35:33;22.40;99.90
44435;DHT22;30138;20.964;105.830;2024-03-08T18:40:44;22.40;99.90
44435;DHT22;30138;20.964;105.830;2024-03-08T18:45:53;22.40;99.90
44435;DHT22;30138;20.964;105.830;2024-03-08T18:51:01;22.40;99.90
44435;DHT22;30138;20.964;105.830;2024-03-08T18:56:10;22.40;99.90
44435;DHT22;30138;20.964;105.830;2024-03-08T19:01:18;22.40;99.90
44435;DHT22;30138;20.964;105.830;2024-03-08T19:06:29;22.40;99.90
44435;DHT22;30138;20.964;105.830;2024-03-08T19:11:38;22.40;99.90
44435;DHT22;30138;20.964;105.830;2024-03-08T19:16:46;22.40;99.90
44435;DHT22;30138;20.964;105.830;2024-03-08T19:21:54;22.40;99.90
44435;DHT22;30138;20.964;105.830;2024-03-08T19:27:03;22.40;99.90
44435;DHT22;30138;20.964;105.830;2024-03-08T19:32:11;22.30;99.90
44435;DHT22;30138;20.964;105.830;2024-03-08T19:37:18;22.30;99.90
44435;DHT22;30138;20.964;105.830;2024-03-08T19:42:27;22.30;99.90
44435;DHT22;30138;20.964;105.830;2024-03-08T19:47:34;22.30;99.90
44435;DHT22;30138;20.964;105.830;2024-03-08T19:52:44;22.30;99.90
44435;DHT22;30138;20.964;105.830;2024-03-08T19:57:53;22.30;99.90
44435;DHT22;30138;20.964;105.830;2024-03-08T20:03:00;22.30;99.90
44435;DHT22;30138;20.964;105.830;2024-03-08T20:08:08;22.30;99.90
44435;DHT22;30138;20.964;105.830;2024-03-08T20:13:19;22.30;99.90
44435;DHT22;30138;20.964;105.830;2024-03-08T20:18:25;22.30;99.90
44435;DHT22;30138;20.964;105.830;2024-03-08T20:23:32;22.30;99.90
44435;DHT22;30138;20.964;105.830;2024-03-08T20:28:41;22.30;99.90
44435;DHT22;30138;20.964;105.830;2024-03-08T20:33:48;22.30;99.90
44435;DHT22;30138;20.964;105.830;2024-03-08T20:38:56;22.20;99.90
44435;DHT22;30138;20.964;105.830;2024-03-08T20:44:05;22.30;99.90
44435;DHT22;30138;20.964;105.830;2024-03-08T20:49:12;22.20;99.90
44435;DHT22;30138;20.964;105.830;2024-03-08T20:54:22;22.20;99.90
44435;DHT22;30138;20.964;105.830;2024-03-08T20:59:32;22.20;99.90
44435;DHT22;30138;20.964;105.830;2024-03-08T21:04:39;22.20;99.90
44435;DHT22;30138;20.964;105.830;2024-03-08T21:09:47;22.20;99.90
44435;DHT22;30138;20.964;105.830;2024-03-08T21:14:55;22.20;99.90
44435;DHT22;30138;20.964;105.830;2024-03-08T21:20:04;22.20;99.90
44435;DHT22;30138;20.964;105.830;2024-03-08T21:25:12;22.20;99.90
44435;DHT22;30138;20.964;105.830;2024-03-08T21:30:21;22.20;99.90
44435;DHT22;30138;20.964;105.830;2024-03-08T21:35:28;22.20;99.90
44435;DHT22;30138;20.964;105.830;2024-03-08T21:40:36;22.20;99.90
44435;DHT22;30138;20.964;105.830;2024-03-08T21:45:48;22.20;99.90
44435;DHT22;30138;20.964;105.830;2024-03-08T21:50:55;22.10;99.90
44435;DHT22;30138;20.964;105.830;2024-03-08T21:56:03;22.20;99.90
44435;DHT22;30138;20.964;105.830;2024-03-08T22:01:16;22.20;99.90
44435;DHT22;30138;20.964;105.830;2024-03-08T22:06:23;22.10;99.90
44435;DHT22;30138;20.964;105.830;2024-03-08T22:11:30;22.10;99.90
44435;DHT22;30138;20.964;105.830;2024-03-08T22:16:39;22.10;99.90
44435;DHT22;30138;20.964;105.830;2024-03-08T22:21:46;22.10;99.90
44435;DHT22;30138;20.964;105.830;2024-03-08T22:26:53;22.10;99.90
44435;DHT22;30138;20.964;105.830;2024-03-08T22:32:03;22.10;99.90
44435;DHT22;30138;20.964;105.830;2024-03-08T22:37:15;22.10;99.90
44435;DHT22;30138;20.964;105.830;2024-03-08T22:42:24;22.10;99.90
44435;DHT22;30138;20.964;105.830;2024-03-08T22:47:33;22.10;99.90
44435;DHT22;30138;20.964;105.830;2024-03-08T22:52:40;22.10;99.90
44435;DHT22;30138;20.964;105.830;2024-03-08T22:57:48;22.10;99.90
44435;DHT22;30138;20.964;105.830;2024-03-08T23:02:57;22.10;99.90
44435;DHT22;30138;20.964;105.830;2024-03-08T23:08:04;22.10;99.90
44435;DHT22;30138;20.964;105.830;2024-03-08T23:13:11;22.10;99.90
44435;DHT22;30138;20.964;105.830;2024-03-08T23:18:21;22.10;99.90
44435;DHT22;30138;20.964;105.830;2024-03-08T23:23:29;22.00;99.90
44435;DHT22;30138;20.964;105.830;2024-03-08T23:28:38;22.00;99.90
44435;DHT22;30138;20.964;105.830;2024-03-08T23:33:47;22.00;99.90
44435;DHT22;30138;20.964;105.830;2024-03-08T23:38:54;22.00;99.90
44435;DHT22;30138;20.964;105.830;2024-03-08T23:44:01;22.00;99.90
44435;DHT22;30138;20.964;105.830;2024-03-08T23:49:14;22.00;99.90
44435;DHT22;30138;20.964;105.830;2024-03-08T23:54:21;22.00;99.90
44435;DHT22;30138;20.964;105.830;2024-03-08T23:59:30;22.00;99.90
